createdAt,value
2022-08-05T00:19:08.870Z,26.8
2022-08-05T00:48:05.461Z,26.54
2022-08-05T01:16:26.691Z,26.43
2022-08-05T01:44:38.429Z,26.18
2022-08-05T02:13:17.003Z,25.06
2022-08-05T02:41:58.377Z,24.81
2022-08-05T03:09:58.657Z,25.13
2022-08-05T03:38:14.850Z,24.98
2022-08-05T04:06:29.660Z,25.13
2022-08-05T04:34:48.969Z,25.68
2022-08-05T05:03:06.860Z,25.92
2022-08-05T05:59:28.934Z,26.66
2022-08-05T06:28:09.588Z,28.07
2022-08-05T06:56:35.420Z,28.33
2022-08-05T07:25:54.576Z,28.93
2022-08-05T07:53:50.153Z,29.52
2022-08-05T08:22:09.293Z,30.58
2022-08-05T08:51:03.054Z,30.28
2022-08-05T09:19:14.966Z,31.38
2022-08-05T09:48:21.167Z,30.3
2022-08-05T10:17:37.046Z,31.14
2022-08-05T10:45:43.131Z,30.58
2022-08-05T11:14:13.766Z,30.56
2022-08-05T11:44:00.864Z,30.78
2022-08-05T12:11:52.635Z,31.04
2022-08-05T12:41:04.540Z,31.03
2022-08-05T13:10:11.725Z,30.92
2022-08-05T13:22:30.177Z,31.15
2022-08-05T13:50:55.690Z,30.79
2022-08-05T14:20:07.717Z,30.19
2022-08-05T14:48:33.604Z,29.57
2022-08-05T15:16:51.669Z,29.28
2022-08-05T15:46:03.680Z,28.99
2022-08-05T16:14:29.816Z,29.21
2022-08-05T16:43:31.995Z,29.12
2022-08-05T17:12:50.231Z,28.87
2022-08-05T17:41:03.203Z,28.66
2022-08-05T18:10:10.728Z,27.59
2022-08-05T18:38:28.281Z,27.23
2022-08-05T19:07:08.800Z,25.16
2022-08-05T19:35:56.235Z,24.85
2022-08-05T20:04:09.420Z,24.3
2022-08-05T20:32:46.618Z,24.01
2022-08-05T21:01:37.603Z,23.6
2022-08-05T21:29:51.237Z,23.34
2022-08-05T21:58:12.082Z,22.99
2022-08-05T22:26:38.440Z,22.89
2022-08-05T22:55:26.588Z,22.88
2022-08-05T23:23:52.565Z,22.83
2022-08-05T23:52:26.243Z,22.97
